createdAt,value
2023-10-24T00:00:18.062Z,20.5
2023-10-24T00:05:16.286Z,20.5
2023-10-24T00:10:16.423Z,20.5
2023-10-24T00:15:24.525Z,20.5
2023-10-24T00:20:21.876Z,20.5
2023-10-24T00:25:19.794Z,20.5
2023-10-24T00:30:14.125Z,20.4
2023-10-24T00:35:14.184Z,20.4
2023-10-24T00:40:32.155Z,20.4
2023-10-24T00:45:14.379Z,20.4
2023-10-24T00:50:18.462Z,20.4
2023-10-24T00:55:18.515Z,20.4
2023-10-24T01:00:18.869Z,20.4
2023-10-24T01:05:19.920Z,20.4
2023-10-24T01:10:15.968Z,20.4
2023-10-24T01:15:15.895Z,20.3
2023-10-24T01:20:13.886Z,20.3
2023-10-24T01:25:15.860Z,20.3
2023-10-24T01:30:24.350Z,20.3
2023-10-24T01:35:16.400Z,20.3
2023-10-24T01:40:18.282Z,20.3
2023-10-24T01:45:14.311Z,20.3
2023-10-24T01:50:20.544Z,20.3
2023-10-24T01:55:14.760Z,20.2
2023-10-24T02:00:17.930Z,20.2
2023-10-24T02:05:24.407Z,20.2
2023-10-24T02:10:16.608Z,20.2
2023-10-24T02:15:16.704Z,20.2
2023-10-24T02:20:15.728Z,20.2
2023-10-24T02:25:18.678Z,20.2
2023-10-24T02:30:22.002Z,20.2
2023-10-24T02:35:17.909Z,20.2
2023-10-24T02:40:20.015Z,20.2
2023-10-24T02:45:16.205Z,20.1
2023-10-24T02:50:14.346Z,20.1
2023-10-24T02:55:20.662Z,20.1
2023-10-24T03:00:15.572Z,20.1
2023-10-24T03:05:18.676Z,20.1
2023-10-24T03:10:16.752Z,20.1
2023-10-24T03:15:15.770Z,20.1
2023-10-24T03:20:15.931Z,20
2023-10-24T03:25:27.899Z,20
2023-10-24T03:30:16.073Z,20
2023-10-24T03:35:18.252Z,20
2023-10-24T03:40:18.127Z,20
2023-10-24T03:45:16.299Z,20
2023-10-24T03:50:22.597Z,20
2023-10-24T03:55:18.987Z,20
2023-10-24T04:00:22.358Z,20
2023-10-24T04:05:14.540Z,20
2023-10-24T04:10:18.724Z,20
2023-10-24T04:15:13.980Z,20
2023-10-24T04:20:17.264Z,20.1
2023-10-24T04:25:16.638Z,20.2
2023-10-24T04:30:16.828Z,20.2
2023-10-24T04:35:18.225Z,20.2
2023-10-24T04:40:18.099Z,20.2
2023-10-24T04:45:20.693Z,20.3
2023-10-24T04:50:16.547Z,20.3
2023-10-24T04:55:14.366Z,20.4
2023-10-24T05:00:16.433Z,20.4
2023-10-24T05:05:15.861Z,20.4
2023-10-24T05:10:20.087Z,20.4
2023-10-24T05:15:14.424Z,20.4
2023-10-24T05:20:14.849Z,20.4
2023-10-24T05:25:13.689Z,20.4
2023-10-24T05:30:16.147Z,20.4
2023-10-24T05:35:14.396Z,20.5
2023-10-24T05:40:16.362Z,20.5
2023-10-24T05:45:20.536Z,20.6
2023-10-24T05:50:21.969Z,20.6
2023-10-24T05:55:16.012Z,20.6
2023-10-24T06:00:14.980Z,20.6
2023-10-24T06:05:19.138Z,20.6
2023-10-24T06:10:18.746Z,20.6
2023-10-24T06:15:15.850Z,20.7
2023-10-24T06:20:14.272Z,20.7
2023-10-24T06:25:21.202Z,20.7
2023-10-24T06:30:16.149Z,20.7
2023-10-24T06:35:19.603Z,20.7
2023-10-24T06:40:14.597Z,20.7
2023-10-24T06:45:18.827Z,20.7
2023-10-24T06:50:20.360Z,20.7
2023-10-24T06:55:18.497Z,20.7
2023-10-24T07:00:16.987Z,20.6
2023-10-24T07:05:16.673Z,20.6
2023-10-24T07:10:14.502Z,20.6
2023-10-24T07:15:20.580Z,20.6
2023-10-24T07:20:19.133Z,20.6
2023-10-24T07:25:17.938Z,20.6
2023-10-24T07:30:18.193Z,20.6
2023-10-24T07:35:18.874Z,20.6
2023-10-24T07:40:15.692Z,20.6
2023-10-24T07:45:18.405Z,20.6
2023-10-24T07:50:16.662Z,20.6
2023-10-24T07:55:16.958Z,20.6
2023-10-24T08:00:16.053Z,20.6
2023-10-24T08:05:18.325Z,20.6
2023-10-24T08:10:14.549Z,20.6
2023-10-24T08:15:14.772Z,20.6
2023-10-24T08:20:16.035Z,20.7
2023-10-24T08:25:21.986Z,20.7
2023-10-24T08:30:16.379Z,20.7
2023-10-24T08:35:16.561Z,20.7
2023-10-24T08:40:18.714Z,20.7
2023-10-24T08:45:14.579Z,20.7
2023-10-24T08:50:19.077Z,20.7
2023-10-24T08:55:14.266Z,20.7
2023-10-24T09:00:16.336Z,20.7
2023-10-24T09:05:18.259Z,20.7
2023-10-24T09:10:16.326Z,20.7
2023-10-24T09:15:14.499Z,20.7
2023-10-24T09:20:17.980Z,20.7
2023-10-24T09:25:18.305Z,20.7
2023-10-24T09:30:14.328Z,20.7
2023-10-24T09:35:17.294Z,20.7
2023-10-24T09:40:14.241Z,20.7
2023-10-24T09:45:16.719Z,20.6
2023-10-24T09:50:29.179Z,20.6
2023-10-24T09:55:16.751Z,20.6
2023-10-24T10:00:25.783Z,20.6
2023-10-24T10:05:19.595Z,20.6
2023-10-24T10:10:14.085Z,20.6
2023-10-24T10:15:17.987Z,20.6
2023-10-24T10:20:20.927Z,20.6
2023-10-24T10:25:17.902Z,20.6
2023-10-24T10:30:52.706Z,20.6
2023-10-24T10:35:19.660Z,20.6
2023-10-24T10:40:14.426Z,20.6
2023-10-24T10:45:14.288Z,20.6
2023-10-24T10:50:20.657Z,20.6
2023-10-24T10:55:15.219Z,20.6
2023-10-24T11:00:32.459Z,20.6
2023-10-24T11:05:18.623Z,20.6
2023-10-24T11:10:17.460Z,20.6
2023-10-24T11:15:14.156Z,20.6
2023-10-24T11:20:39.313Z,20.6
2023-10-24T11:25:15.861Z,20.6
2023-10-24T11:30:15.935Z,20.6
2023-10-24T11:35:14.433Z,20.6
2023-10-24T11:40:16.818Z,20.6
2023-10-24T11:45:22.210Z,20.6
2023-10-24T11:50:14.738Z,20.6
2023-10-24T11:55:14.223Z,20.6
2023-10-24T12:00:16.677Z,20.6
2023-10-24T12:05:16.729Z,20.6
2023-10-24T12:10:19.798Z,20.6
2023-10-24T12:15:17.729Z,20.6
2023-10-24T12:20:16.371Z,20.6
2023-10-24T12:25:14.837Z,20.6
2023-10-24T12:30:15.769Z,20.6
2023-10-24T12:35:27.476Z,20.6
2023-10-24T12:40:13.758Z,20.6
2023-10-24T12:45:15.685Z,20.6
2023-10-24T12:50:14.908Z,20.6
2023-10-24T12:55:24.002Z,20.6
2023-10-24T13:00:17.962Z,20.6
2023-10-24T13:05:14.461Z,20.6
2023-10-24T13:10:15.119Z,20.6
2023-10-24T13:15:16.347Z,20.6
2023-10-24T13:20:17.574Z,20.6
2023-10-24T13:25:15.677Z,20.6
2023-10-24T13:30:37.496Z,20.6
2023-10-24T13:40:19.600Z,20.6
2023-10-24T13:45:16.620Z,20.6
2023-10-24T13:50:17.045Z,20.6
2023-10-24T13:55:14.345Z,20.6
2023-10-24T14:00:17.211Z,20.6
2023-10-24T14:05:20.264Z,20.6
2023-10-24T14:10:14.324Z,20.6
2023-10-24T14:15:20.710Z,20.7
2023-10-24T14:20:16.296Z,20.7
2023-10-24T14:25:16.431Z,20.7
2023-10-24T14:30:16.656Z,20.7
2023-10-24T14:35:18.874Z,20.7
2023-10-24T14:40:16.351Z,20.7
2023-10-24T14:45:14.413Z,20.7
2023-10-24T14:50:18.620Z,20.7
2023-10-24T14:55:17.778Z,20.8
2023-10-24T15:00:13.845Z,20.8
2023-10-24T15:05:15.133Z,20.8
2023-10-24T15:10:14.262Z,20.8
2023-10-24T15:15:18.479Z,20.8
2023-10-24T15:20:20.695Z,20.8
2023-10-24T15:25:20.649Z,20.8
2023-10-24T15:30:16.618Z,20.8
2023-10-24T15:35:15.255Z,20.9
2023-10-24T15:40:16.291Z,20.9
2023-10-24T15:45:14.284Z,20.9
2023-10-24T15:50:14.739Z,20.9
2023-10-24T15:55:43.649Z,20.9
2023-10-24T16:00:20.867Z,20.9
2023-10-24T16:05:16.114Z,20.9
2023-10-24T16:10:14.049Z,20.9
2023-10-24T16:15:14.182Z,20.9
2023-10-24T16:20:16.784Z,20.9
2023-10-24T16:25:20.585Z,20.9
2023-10-24T16:30:16.645Z,20.9
2023-10-24T16:35:19.045Z,20.9
2023-10-24T16:40:18.720Z,20.9
2023-10-24T16:45:13.739Z,20.9
2023-10-24T16:50:15.059Z,21
2023-10-24T16:55:14.128Z,21
2023-10-24T17:00:18.296Z,21.1
2023-10-24T17:05:21.179Z,21.1
2023-10-24T17:10:16.232Z,21.2
2023-10-24T17:15:18.495Z,21.2
2023-10-24T17:20:23.178Z,21.2
2023-10-24T17:25:20.122Z,21.2
2023-10-24T17:30:16.441Z,21.2
2023-10-24T17:35:16.438Z,21.3
2023-10-24T17:40:18.868Z,21.2
2023-10-24T17:45:15.586Z,21.2
2023-10-24T17:50:14.879Z,21.2
2023-10-24T17:55:13.730Z,21.2
2023-10-24T18:00:18.107Z,21.3
2023-10-24T18:05:20.573Z,21.3
2023-10-24T18:10:15.606Z,21.3
2023-10-24T18:15:16.825Z,21.3
2023-10-24T18:20:18.025Z,21.3
2023-10-24T18:25:18.175Z,21.2
2023-10-24T18:30:18.234Z,21.3
2023-10-24T18:35:16.417Z,21.3
2023-10-24T18:40:18.779Z,21.3
2023-10-24T18:45:17.559Z,21.3
2023-10-24T18:55:16.953Z,21.3
2023-10-24T19:00:14.230Z,21.3
2023-10-24T19:05:14.130Z,21.3
2023-10-24T19:10:22.760Z,21.3
2023-10-24T19:15:18.640Z,21.3
2023-10-24T19:20:18.588Z,21.3
2023-10-24T19:25:14.567Z,21.3
2023-10-24T19:30:16.569Z,21.3
2023-10-24T19:35:18.629Z,21.3
2023-10-24T19:40:16.848Z,21.3
2023-10-24T19:45:17.811Z,21.3
2023-10-24T19:50:18.749Z,21.3
2023-10-24T20:00:18.646Z,21.3
2023-10-24T20:05:16.542Z,21.3
2023-10-24T20:13:03.894Z,21.2
2023-10-24T20:15:13.948Z,21.2
2023-10-24T20:20:15.919Z,21.2
2023-10-24T20:25:16.216Z,21.2
2023-10-24T20:30:18.500Z,21.2
2023-10-24T20:35:16.728Z,21.1
2023-10-24T20:40:20.044Z,21.2
2023-10-24T20:45:15.903Z,21.1
2023-10-24T20:50:28.399Z,21.1
2023-10-24T20:55:15.178Z,21.1
2023-10-24T21:00:14.204Z,21.1
2023-10-24T21:05:16.653Z,21.1
2023-10-24T21:10:21.221Z,21.1
2023-10-24T21:15:16.507Z,21.1
2023-10-24T21:20:22.532Z,21
2023-10-24T21:25:23.194Z,21
2023-10-24T21:30:14.347Z,21
2023-10-24T21:35:18.667Z,21
2023-10-24T21:40:14.495Z,21
2023-10-24T21:45:13.755Z,21
2023-10-24T21:50:15.638Z,21
2023-10-24T21:55:22.948Z,20.9
2023-10-24T22:00:14.123Z,20.9
2023-10-24T22:05:13.888Z,20.9
2023-10-24T22:10:14.422Z,20.9
2023-10-24T22:15:17.161Z,20.9
2023-10-24T22:20:15.990Z,20.9
2023-10-24T22:25:22.438Z,20.8
2023-10-24T22:30:20.831Z,20.8
2023-10-24T22:35:17.760Z,20.8
2023-10-24T22:40:15.117Z,20.8
2023-10-24T22:45:14.434Z,20.8
2023-10-24T22:50:20.482Z,20.7
2023-10-24T22:55:16.824Z,20.8
2023-10-24T23:00:19.755Z,20.7
2023-10-24T23:05:16.998Z,20.7
2023-10-24T23:10:14.289Z,20.7
2023-10-24T23:15:22.580Z,20.7
2023-10-24T23:20:20.677Z,20.7
2023-10-24T23:25:18.895Z,20.7
2023-10-24T23:30:15.998Z,20.7
2023-10-24T23:35:22.089Z,20.6
2023-10-24T23:40:24.523Z,20.6
2023-10-24T23:45:14.528Z,20.6
2023-10-24T23:50:16.528Z,20.6
2023-10-24T23:55:17.192Z,20.6
